Time;durP1;ratioP1;P1;durP2;ratioP2;P2;SDS_P1;SDS_P2;PMS_P1;PMS_P2;Temp;Humidity;BMP_temperature;BMP_pressure;BME280_temperature;BME280_humidity;BME280_pressure;Samples;Min_cycle;Max_cycle;Signal;HPM_P1;HPM_P2
2021/05/03 00:00:30;;;;;;;2.30;0.40;;;20.70;51.20;;;;;;999820;29;20234;-82
2021/05/03 00:01:00;;;;;;;4.63;0.50;;;20.60;51.90;;;;;;1018409;29;20063;-80
2021/05/03 00:01:31;;;;;;;4.18;0.30;;;20.60;51.40;;;;;;1015825;29;20084;-82
2021/05/03 00:02:01;;;;;;;2.88;0.47;;;20.60;51.50;;;;;;1012206;29;20075;-81
2021/05/03 00:02:33;;;;;;;1.83;0.50;;;20.60;51.50;;;;;;1016037;29;20099;-81
2021/05/03 00:03:05;;;;;;;4.65;0.50;;;20.60;51.60;;;;;;1023987;29;20027;-82
2021/05/03 00:03:36;;;;;;;2.15;0.30;;;20.50;51.70;;;;;;1015186;29;20020;-81
2021/05/03 00:04:06;;;;;;;3.10;0.47;;;20.50;51.70;;;;;;1016216;29;20059;-82
2021/05/03 00:04:37;;;;;;;1.98;0.30;;;20.50;51.70;;;;;;1019596;29;20490;-79
2021/05/03 00:05:17;;;;;;;1.95;0.50;;;20.50;51.80;;;;;;1016141;29;20076;-81
2021/05/03 00:05:55;;;;;;;1.25;0.25;;;20.50;51.80;;;;;;1022974;29;20050;-82
2021/05/03 00:06:26;;;;;;;1.48;0.40;;;20.50;52.10;;;;;;1016036;29;20039;-82
2021/05/03 00:06:56;;;;;;;8.75;0.30;;;20.50;52.00;;;;;;1019939;29;20016;-80
2021/05/03 00:07:27;;;;;;;8.38;0.45;;;20.60;51.80;;;;;;1013632;29;20031;-83
2021/05/03 00:07:58;;;;;;;3.25;0.35;;;20.50;51.70;;;;;;1012118;29;20132;-80
2021/05/03 00:08:28;;;;;;;1.75;0.30;;;20.50;51.90;;;;;;1019835;28;20199;-82
2021/05/03 00:08:59;;;;;;;2.28;0.50;;;20.60;52.00;;;;;;1019599;29;20035;-81
2021/05/03 00:09:29;;;;;;;2.55;0.50;;;20.60;51.90;;;;;;1015835;29;20372;-83
2021/05/03 00:10:00;;;;;;;3.38;0.45;;;20.60;51.70;;;;;;1011856;29;20017;-80
2021/05/03 00:10:30;;;;;;;4.53;0.30;;;20.60;51.70;;;;;;1016047;29;20471;-81
2021/05/03 00:11:01;;;;;;;4.97;0.60;;;20.70;51.60;;;;;;1019918;29;20020;-80
2021/05/03 00:11:31;;;;;;;4.90;0.50;;;20.70;51.60;;;;;;1021937;29;20019;-84
2021/05/03 00:12:03;;;;;;;4.65;0.60;;;20.70;51.70;;;;;;1015958;29;20178;-81
2021/05/03 00:12:33;;;;;;;11.43;1.15;;;20.80;52.00;;;;;;1019882;29;20079;-83
2021/05/03 00:13:04;;;;;;;17.50;1.20;;;20.80;51.70;;;;;;1020038;29;20032;-82
2021/05/03 00:13:35;;;;;;;18.48;0.77;;;20.80;51.70;;;;;;1021546;28;20039;-83
2021/05/03 00:14:05;;;;;;;6.80;0.30;;;20.80;51.20;;;;;;1024045;28;20474;-82
2021/05/03 00:14:36;;;;;;;8.82;0.60;;;20.70;50.60;;;;;;1023883;29;20043;-85
2021/05/03 00:15:07;;;;;;;9.48;0.52;;;20.60;50.40;;;;;;1015426;29;20020;-83
2021/05/03 00:15:37;;;;;;;11.60;0.52;;;20.50;50.40;;;;;;1019392;29;20044;-83
2021/05/03 00:16:08;;;;;;;2.50;0.43;;;20.50;50.50;;;;;;1020073;29;20024;-84
2021/05/03 00:16:38;;;;;;;8.38;0.70;;;20.50;50.40;;;;;;1016060;29;20065;-84
2021/05/03 00:17:09;;;;;;;11.88;0.60;;;20.40;50.40;;;;;;1019929;29;20024;-82
2021/05/03 00:17:39;;;;;;;7.68;0.50;;;20.40;50.40;;;;;;1019995;29;20011;-82
2021/05/03 00:18:10;;;;;;;7.50;0.50;;;20.40;50.20;;;;;;1023989;29;20043;-83
2021/05/03 00:18:41;;;;;;;8.43;0.50;;;20.40;49.90;;;;;;1011728;29;20024;-84
2021/05/03 00:19:11;;;;;;;7.88;0.50;;;20.30;49.90;;;;;;1020170;29;20046;-82
2021/05/03 00:19:42;;;;;;;7.35;0.50;;;20.40;50.00;;;;;;1020130;29;20434;-82
2021/05/03 00:20:12;;;;;;;5.53;0.40;;;20.40;50.00;;;;;;1012107;29;20510;-84
2021/05/03 00:20:44;;;;;;;5.53;0.70;;;20.40;49.80;;;;;;1016277;29;20099;-84
2021/05/03 00:21:14;;;;;;;8.30;0.50;;;20.30;49.70;;;;;;1020262;29;20102;-84
2021/05/03 00:21:45;;;;;;;3.30;0.57;;;20.30;49.60;;;;;;1008509;29;20019;-83
2021/05/03 00:22:15;;;;;;;8.23;0.50;;;20.30;49.60;;;;;;1012149;29;20483;-84
2021/05/03 00:22:46;;;;;;;8.93;0.40;;;20.30;49.80;;;;;;1020216;29;20046;-80
2021/05/03 00:23:16;;;;;;;10.40;0.63;;;20.20;50.00;;;;;;1008542;29;20041;-82
2021/05/03 00:23:47;;;;;;;5.60;0.30;;;20.30;50.10;;;;;;1019373;29;20008;-81
2021/05/03 00:24:18;;;;;;;7.93;0.63;;;20.30;50.10;;;;;;1023946;29;20019;-81
2021/05/03 00:24:48;;;;;;;8.60;0.55;;;20.30;50.00;;;;;;1011856;29;20028;-80
2021/05/03 00:25:19;;;;;;;8.60;0.60;;;20.30;50.00;;;;;;1019747;29;20082;-82
2021/05/03 00:25:49;;;;;;;10.75;0.60;;;20.30;50.00;;;;;;1019956;29;20023;-80
2021/05/03 00:26:20;;;;;;;3.15;0.45;;;20.30;49.90;;;;;;1020062;29;20398;-84
2021/05/03 00:26:50;;;;;;;9.25;0.55;;;20.30;49.70;;;;;;1019782;29;20016;-80
2021/05/03 00:27:21;;;;;;;6.85;0.55;;;20.20;49.40;;;;;;1031722;28;20085;-81
2021/05/03 00:27:52;;;;;;;3.22;0.40;;;20.20;49.40;;;;;;1028206;28;20018;-81
2021/05/03 00:28:22;;;;;;;1.38;0.50;;;20.20;49.40;;;;;;1020109;29;20016;-83
2021/05/03 00:28:53;;;;;;;1.95;0.55;;;20.20;49.30;;;;;;1019487;28;20032;-80
2021/05/03 00:29:23;;;;;;;1.05;0.43;;;20.20;49.30;;;;;;1028034;28;20061;-83
2021/05/03 00:29:54;;;;;;;6.85;0.38;;;20.20;49.20;;;;;;1023470;28;20015;-79
2021/05/03 00:30:24;;;;;;;0.95;0.30;;;20.20;49.20;;;;;;1015356;29;20040;-82
2021/05/03 00:30:55;;;;;;;4.05;0.52;;;20.20;49.10;;;;;;1024136;28;20114;-81
2021/05/03 00:31:25;;;;;;;3.65;0.60;;;20.20;49.20;;;;;;1011847;29;20055;-82
2021/05/03 00:31:56;;;;;;;3.55;0.77;;;20.20;49.30;;;;;;1019919;29;20363;-83
2021/05/03 00:32:27;;;;;;;1.52;0.50;;;20.20;49.30;;;;;;1020018;29;20036;-83
2021/05/03 00:32:58;;;;;;;2.63;0.43;;;20.20;49.20;;;;;;1008099;29;20028;-81
2021/05/03 00:33:28;;;;;;;3.33;0.50;;;20.20;49.20;;;;;;1004324;29;20026;-82
2021/05/03 00:33:59;;;;;;;2.58;0.50;;;20.30;49.30;;;;;;1011495;29;20049;-83
2021/05/03 00:34:29;;;;;;;4.53;0.75;;;20.30;49.20;;;;;;1012068;29;20092;-82
2021/05/03 00:35:00;;;;;;;0.75;0.40;;;20.30;48.90;;;;;;1019646;29;20039;-80
2021/05/03 00:35:31;;;;;;;1.85;0.40;;;20.30;48.80;;;;;;1007865;29;20025;-83
2021/05/03 00:36:02;;;;;;;5.57;0.52;;;20.30;48.90;;;;;;1008206;29;20444;-83
2021/05/03 00:36:32;;;;;;;1.33;0.40;;;20.30;48.90;;;;;;1011982;29;20069;-83
2021/05/03 00:37:03;;;;;;;3.13;0.68;;;20.30;48.50;;;;;;1012155;29;20040;-83
2021/05/03 00:37:33;;;;;;;2.10;0.60;;;20.30;48.60;;;;;;1011882;29;20055;-83
2021/05/03 00:38:05;;;;;;;1.60;0.40;;;20.30;48.70;;;;;;1019893;29;20098;-83
2021/05/03 00:38:36;;;;;;;3.28;0.40;;;20.30;48.40;;;;;;1015651;29;20486;-81
2021/05/03 00:39:07;;;;;;;2.10;0.30;;;20.30;48.00;;;;;;1016029;29;20024;-82
2021/05/03 00:39:37;;;;;;;3.10;0.68;;;20.30;47.80;;;;;;1015554;29;20221;-82
2021/05/03 00:40:08;;;;;;;1.77;0.40;;;20.30;47.90;;;;;;1019970;29;20019;-82
2021/05/03 00:40:38;;;;;;;1.77;0.40;;;20.30;47.80;;;;;;1011924;29;20025;-82
2021/05/03 00:41:09;;;;;;;1.90;0.30;;;20.20;48.00;;;;;;1004138;29;20018;-83
2021/05/03 00:41:39;;;;;;;1.70;0.30;;;20.20;48.00;;;;;;1008125;29;20027;-81
2021/05/03 00:42:10;;;;;;;2.13;0.50;;;20.30;48.00;;;;;;1015911;29;20016;-82
2021/05/03 00:42:44;;;;;;;4.40;0.50;;;20.30;48.00;;;;;;1011985;29;20020;-83
2021/05/03 00:43:21;;;;;;;3.92;0.40;;;20.30;48.00;;;;;;1015905;29;20044;-82
2021/05/03 00:43:51;;;;;;;2.20;0.45;;;20.30;48.00;;;;;;1023231;28;20497;-82
2021/05/03 00:44:24;;;;;;;1.60;0.30;;;20.30;48.10;;;;;;1015902;29;20016;-82
2021/05/03 00:44:55;;;;;;;0.65;0.30;;;20.30;47.80;;;;;;1015528;29;20020;-82
2021/05/03 00:46:19;;;;;;;1.35;0.35;;;20.30;47.90;;;;;;1020468;28;20062;-79
2021/05/03 00:46:49;;;;;;;1.48;0.30;;;20.30;47.80;;;;;;1027295;28;20057;-78
2021/05/03 00:47:20;;;;;;;2.10;0.40;;;20.30;47.70;;;;;;1028106;28;20025;-79
2021/05/03 00:47:50;;;;;;;2.67;0.52;;;20.30;47.70;;;;;;1023876;28;20131;-77
2021/05/03 00:48:21;;;;;;;0.77;0.40;;;20.30;47.70;;;;;;1019270;29;20282;-81
2021/05/03 00:48:52;;;;;;;0.60;0.40;;;20.30;47.80;;;;;;1018702;29;20053;-79
2021/05/03 00:49:23;;;;;;;1.38;0.52;;;20.30;47.80;;;;;;1019895;29;20019;-78
2021/05/03 00:49:53;;;;;;;0.40;0.40;;;20.40;47.60;;;;;;1019645;29;20046;-78
2021/05/03 00:50:28;;;;;;;15.20;0.47;;;20.30;47.70;;;;;;1018988;29;20038;-82
2021/05/03 00:50:59;;;;;;;1.15;0.40;;;20.30;47.70;;;;;;1016634;29;20016;-75
2021/05/03 00:51:29;;;;;;;2.15;0.43;;;20.30;47.50;;;;;;1015543;29;20012;-78
2021/05/03 00:52:00;;;;;;;0.88;0.40;;;20.30;47.70;;;;;;1015582;29;20406;-77
2021/05/03 00:52:30;;;;;;;1.70;0.40;;;20.30;47.40;;;;;;1015670;29;20028;-77
2021/05/03 00:53:01;;;;;;;1.63;0.47;;;20.30;47.60;;;;;;1007926;29;20479;-75
2021/05/03 00:53:31;;;;;;;1.02;0.40;;;20.30;47.60;;;;;;1015932;29;20372;-78
2021/05/03 00:54:03;;;;;;;1.45;0.40;;;20.30;47.60;;;;;;1015120;29;20084;-79
2021/05/03 00:54:33;;;;;;;0.98;0.40;;;20.30;47.60;;;;;;1011843;29;20037;-79
2021/05/03 00:55:04;;;;;;;2.67;0.40;;;20.30;47.40;;;;;;1004138;29;20537;-81
2021/05/03 00:55:35;;;;;;;1.58;0.60;;;20.30;47.40;;;;;;1011175;29;20354;-78
2021/05/03 00:56:05;;;;;;;1.55;0.40;;;20.30;47.50;;;;;;1011552;29;20557;-77
2021/05/03 00:56:36;;;;;;;1.05;0.30;;;20.30;47.60;;;;;;1012064;29;20100;-80
2021/05/03 00:57:07;;;;;;;1.20;0.40;;;20.30;47.50;;;;;;1008002;29;20516;-78
2021/05/03 00:57:38;;;;;;;0.77;0.40;;;20.30;47.30;;;;;;1011796;29;20484;-78
2021/05/03 00:58:08;;;;;;;1.95;0.50;;;20.30;47.40;;;;;;1015659;29;20503;-81
2021/05/03 00:58:39;;;;;;;1.58;0.40;;;20.30;47.40;;;;;;1019052;29;20011;-77
2021/05/03 00:59:09;;;;;;;2.53;0.40;;;20.30;47.40;;;;;;1014170;29;20498;-77
2021/05/03 00:59:40;;;;;;;2.78;0.50;;;20.30;47.10;;;;;;1011798;29;20029;-77
2021/05/03 01:00:13;;;;;;;1.08;0.40;;;20.30;47.70;;;;;;1011144;29;20016;-79
2021/05/03 01:00:44;;;;;;;1.80;0.38;;;20.30;47.30;;;;;;1007736;29;20017;-78
2021/05/03 01:01:14;;;;;;;1.50;0.50;;;20.30;47.20;;;;;;1019771;29;20020;-78
2021/05/03 01:01:45;;;;;;;0.90;0.32;;;20.30;47.20;;;;;;1021660;29;20514;-77
2021/05/03 01:02:15;;;;;;;1.38;0.50;;;20.30;47.20;;;;;;1015582;29;20024;-76
2021/05/03 01:02:46;;;;;;;1.88;0.30;;;20.30;47.20;;;;;;1015840;29;20024;-76
2021/05/03 01:03:16;;;;;;;0.73;0.40;;;20.30;47.20;;;;;;1022594;29;20437;-77
2021/05/03 01:03:47;;;;;;;0.85;0.30;;;20.30;47.20;;;;;;1023061;29;20015;-78
2021/05/03 01:04:17;;;;;;;1.00;0.30;;;20.30;47.20;;;;;;1015503;29;20026;-76
2021/05/03 01:04:48;;;;;;;3.17;0.55;;;20.30;47.00;;;;;;1015506;29;20020;-78
2021/05/03 01:05:21;;;;;;;3.45;0.55;;;20.30;47.20;;;;;;1023453;28;20394;-78
2021/05/03 01:05:52;;;;;;;1.33;0.60;;;20.30;47.20;;;;;;1022959;29;20085;-76
2021/05/03 01:06:22;;;;;;;1.73;0.45;;;20.30;47.00;;;;;;1020416;29;20044;-81
2021/05/03 01:06:53;;;;;;;1.33;0.40;;;20.30;46.90;;;;;;1027566;28;20441;-79
2021/05/03 01:07:23;;;;;;;1.00;0.40;;;20.30;47.10;;;;;;1023230;28;20019;-80
2021/05/03 01:07:54;;;;;;;1.40;0.30;;;20.30;47.00;;;;;;1025088;28;20144;-76
2021/05/03 01:08:25;;;;;;;2.63;0.40;;;20.30;47.00;;;;;;1023221;29;20019;-77
2021/05/03 01:08:55;;;;;;;0.75;0.35;;;20.30;47.10;;;;;;1022762;28;20039;-76
2021/05/03 01:09:26;;;;;;;2.35;0.43;;;20.30;47.00;;;;;;1027324;28;20083;-78
2021/05/03 01:09:56;;;;;;;2.65;0.43;;;20.30;47.20;;;;;;1011794;29;20077;-77
2021/05/03 01:10:28;;;;;;;2.90;0.60;;;20.30;46.90;;;;;;1015646;29;20025;-79
2021/05/03 01:11:00;;;;;;;1.35;0.40;;;20.30;46.80;;;;;;1015855;29;20056;-78
2021/05/03 01:11:30;;;;;;;1.15;0.45;;;20.30;46.70;;;;;;1019242;29;20059;-75
2021/05/03 01:12:01;;;;;;;2.30;0.30;;;20.30;46.80;;;;;;1023691;29;20031;-82
2021/05/03 01:12:32;;;;;;;0.55;0.30;;;20.30;46.90;;;;;;1011712;29;20048;-77
2021/05/03 01:13:02;;;;;;;5.05;0.47;;;20.30;46.60;;;;;;1015772;29;20479;-78
2021/05/03 01:13:33;;;;;;;0.40;0.30;;;20.30;46.80;;;;;;1013313;29;20012;-79
2021/05/03 01:14:04;;;;;;;1.55;0.50;;;20.30;46.60;;;;;;1015908;29;20032;-79
2021/05/03 01:14:34;;;;;;;2.28;0.40;;;20.30;46.90;;;;;;1015924;29;20020;-78
2021/05/03 01:15:06;;;;;;;0.73;0.40;;;20.30;46.80;;;;;;1010623;29;20044;-77
2021/05/03 01:15:37;;;;;;;0.88;0.30;;;20.30;46.70;;;;;;1011523;29;20008;-78
2021/05/03 01:16:07;;;;;;;0.52;0.32;;;20.30;46.80;;;;;;1015639;29;20024;-79
2021/05/03 01:16:38;;;;;;;0.95;0.50;;;20.30;46.60;;;;;;1015503;29;20080;-78
2021/05/03 01:17:08;;;;;;;0.70;0.30;;;20.30;46.60;;;;;;1019447;29;20086;-76
2021/05/03 01:17:42;;;;;;;2.30;0.40;;;20.30;46.60;;;;;;1019939;29;20077;-77
2021/05/03 01:18:13;;;;;;;1.25;0.40;;;20.20;46.70;;;;;;1016606;29;20028;-77
2021/05/03 01:18:43;;;;;;;0.60;0.30;;;20.30;46.60;;;;;;1015558;29;20020;-76
2021/05/03 01:19:19;;;;;;;0.73;0.40;;;20.30;47.30;;;;;;1016813;29;20031;-78
2021/05/03 01:19:49;;;;;;;0.82;0.20;;;20.20;46.70;;;;;;1023890;29;20046;-75
2021/05/03 01:20:20;;;;;;;0.40;0.30;;;20.20;46.60;;;;;;1024785;28;20560;-79
2021/05/03 01:20:56;;;;;;;1.02;0.47;;;20.20;46.80;;;;;;1024762;28;20027;-77
2021/05/03 01:21:27;;;;;;;1.08;0.50;;;20.20;46.60;;;;;;1023702;28;20023;-75
2021/05/03 01:21:58;;;;;;;0.63;0.32;;;20.30;46.60;;;;;;1020194;29;20027;-79
2021/05/03 01:22:32;;;;;;;3.20;0.40;;;20.20;46.60;;;;;;1016054;29;20120;-76
2021/05/03 01:23:05;;;;;;;0.82;0.35;;;20.20;46.60;;;;;;1008134;29;20575;-79
2021/05/03 01:23:35;;;;;;;1.35;0.40;;;20.20;46.60;;;;;;1011195;29;20107;-78
2021/05/03 01:24:06;;;;;;;2.47;0.52;;;20.20;46.70;;;;;;1015969;29;20028;-80
2021/05/03 01:24:37;;;;;;;0.47;0.40;;;20.20;46.60;;;;;;1016451;29;20024;-77
2021/05/03 01:25:08;;;;;;;0.95;0.50;;;20.20;46.60;;;;;;1015476;29;20024;-77
2021/05/03 01:25:41;;;;;;;0.93;0.50;;;20.30;46.60;;;;;;1007818;29;20501;-79
2021/05/03 01:26:12;;;;;;;0.70;0.40;;;20.20;46.60;;;;;;1011951;29;20447;-79
2021/05/03 01:26:42;;;;;;;0.90;0.40;;;20.20;46.60;;;;;;1016473;29;20077;-78
2021/05/03 01:27:13;;;;;;;1.25;0.60;;;20.20;46.60;;;;;;1020068;29;20028;-78
2021/05/03 01:27:44;;;;;;;2.25;0.50;;;20.20;46.60;;;;;;1021364;29;20395;-77
2021/05/03 01:28:15;;;;;;;1.60;0.85;;;20.20;46.60;;;;;;1019056;29;20020;-78
2021/05/03 01:28:46;;;;;;;2.13;0.40;;;20.20;46.60;;;;;;1018957;28;20487;-79
2021/05/03 01:29:16;;;;;;;1.23;0.50;;;20.20;46.60;;;;;;1019709;29;20046;-80
2021/05/03 01:29:47;;;;;;;0.90;0.40;;;20.20;46.60;;;;;;1019238;29;20059;-76
2021/05/03 01:30:17;;;;;;;0.82;0.30;;;20.20;46.60;;;;;;1019021;29;20016;-79
2021/05/03 01:30:48;;;;;;;0.70;0.30;;;20.20;46.60;;;;;;1023548;29;20114;-81
2021/05/03 01:31:19;;;;;;;1.33;0.45;;;20.20;46.60;;;;;;1014179;29;20024;-79
2021/05/03 01:31:50;;;;;;;1.05;0.30;;;20.20;46.60;;;;;;1023243;29;20102;-77
2021/05/03 01:32:20;;;;;;;0.47;0.40;;;20.20;46.60;;;;;;1023655;29;20150;-78
2021/05/03 01:32:51;;;;;;;1.50;0.50;;;20.20;46.60;;;;;;1019466;29;20020;-78
2021/05/03 01:33:21;;;;;;;0.65;0.40;;;20.20;46.60;;;;;;1019548;29;20408;-76
2021/05/03 01:33:52;;;;;;;0.90;0.50;;;20.20;46.60;;;;;;1023052;28;21428;-78
2021/05/03 01:34:22;;;;;;;1.65;0.60;;;20.20;46.60;;;;;;1027371;28;20018;-79
2021/05/03 01:34:53;;;;;;;0.98;0.50;;;20.20;46.60;;;;;;1021161;29;20012;-80
2021/05/03 01:35:23;;;;;;;1.02;0.40;;;20.20;46.60;;;;;;1019140;29;20015;-78
2021/05/03 01:35:54;;;;;;;2.10;0.57;;;20.20;46.60;;;;;;1023697;29;20494;-77
2021/05/03 01:36:24;;;;;;;4.10;0.40;;;20.20;46.80;;;;;;1015464;29;20299;-78
2021/05/03 01:36:55;;;;;;;3.10;0.40;;;20.20;46.90;;;;;;1016017;29;20515;-80
2021/05/03 01:37:25;;;;;;;1.00;0.47;;;20.20;46.90;;;;;;1019335;29;20023;-77
2021/05/03 01:37:57;;;;;;;1.65;0.40;;;20.20;46.90;;;;;;1015656;29;20083;-76
2021/05/03 01:38:27;;;;;;;0.82;0.40;;;20.30;46.90;;;;;;1015843;29;20499;-76
2021/05/03 01:38:58;;;;;;;2.58;0.60;;;20.20;46.90;;;;;;1015362;29;20029;-79
2021/05/03 01:39:28;;;;;;;3.15;0.55;;;20.20;46.80;;;;;;1016294;29;20067;-78
2021/05/03 01:39:59;;;;;;;1.38;0.30;;;20.20;46.80;;;;;;1023463;29;20045;-80
2021/05/03 01:40:30;;;;;;;2.00;0.60;;;20.30;47.00;;;;;;1019844;29;20026;-77
2021/05/03 01:41:00;;;;;;;2.90;0.45;;;20.20;46.90;;;;;;1016066;29;20685;-78
2021/05/03 01:41:31;;;;;;;1.23;0.52;;;20.30;46.90;;;;;;1019993;29;20028;-77
2021/05/03 01:42:01;;;;;;;2.33;0.40;;;20.30;46.90;;;;;;1015662;29;20031;-78
2021/05/03 01:42:34;;;;;;;1.20;0.50;;;20.30;46.90;;;;;;1007833;29;20032;-77
2021/05/03 01:43:16;;;;;;;1.55;0.43;;;20.30;46.80;;;;;;1008229;29;20025;-77
2021/05/03 01:43:47;;;;;;;0.60;0.45;;;20.30;46.80;;;;;;1014950;29;20024;-80
2021/05/03 01:44:17;;;;;;;1.27;0.40;;;20.30;46.70;;;;;;1019636;29;20115;-79
2021/05/03 01:44:48;;;;;;;2.85;0.52;;;20.30;46.70;;;;;;1015609;29;20076;-77
2021/05/03 01:45:21;;;;;;;0.82;0.43;;;20.30;46.70;;;;;;1010629;29;20096;-79
2021/05/03 01:45:53;;;;;;;0.60;0.38;;;20.30;46.60;;;;;;1015238;29;20399;-79
2021/05/03 01:46:24;;;;;;;6.45;0.60;;;20.30;46.60;;;;;;1015429;29;20047;-80
2021/05/03 01:46:54;;;;;;;2.40;0.50;;;20.30;46.70;;;;;;1015690;29;20024;-77
2021/05/03 01:47:25;;;;;;;2.50;0.47;;;20.30;46.60;;;;;;1015546;29;20487;-78
2021/05/03 01:47:55;;;;;;;1.15;0.52;;;20.30;46.60;;;;;;1015827;29;20039;-77
2021/05/03 01:48:28;;;;;;;0.95;0.50;;;20.30;46.60;;;;;;1011318;29;20526;-77
2021/05/03 01:48:59;;;;;;;2.75;0.50;;;20.30;46.60;;;;;;1010928;29;20495;-78
2021/05/03 01:49:29;;;;;;;0.60;0.40;;;20.30;46.60;;;;;;1012438;29;20017;-78
2021/05/03 01:50:00;;;;;;;0.98;0.43;;;20.30;46.70;;;;;;1016088;29;20478;-78
2021/05/03 01:50:30;;;;;;;3.05;0.50;;;20.30;46.60;;;;;;1019533;29;20019;-78
2021/05/03 01:51:01;;;;;;;1.25;0.50;;;20.30;46.70;;;;;;1019471;29;20158;-79
2021/05/03 01:51:31;;;;;;;3.38;0.52;;;20.30;46.60;;;;;;1019255;29;20020;-77
2021/05/03 01:52:02;;;;;;;1.70;0.43;;;20.30;46.60;;;;;;1015046;29;20542;-79
2021/05/03 01:52:34;;;;;;;1.77;0.50;;;20.20;46.60;;;;;;1011403;29;20507;-77
2021/05/03 01:53:05;;;;;;;2.50;0.60;;;20.30;46.60;;;;;;1015528;29;20024;-79
2021/05/03 01:53:35;;;;;;;0.95;0.40;;;20.30;46.60;;;;;;1022951;29;20023;-78
2021/05/03 01:54:06;;;;;;;1.00;0.40;;;20.30;46.60;;;;;;1020090;29;20475;-78
2021/05/03 01:54:37;;;;;;;1.30;0.55;;;20.30;47.10;;;;;;1011268;29;20012;-76
2021/05/03 01:55:08;;;;;;;1.60;0.45;;;20.20;46.60;;;;;;1015633;29;20028;-78
2021/05/03 01:55:38;;;;;;;1.60;0.40;;;20.30;46.50;;;;;;1017016;29;20015;-79
2021/05/03 01:56:09;;;;;;;1.77;0.40;;;20.30;46.50;;;;;;1019282;29;20312;-76
2021/05/03 01:56:39;;;;;;;0.88;0.30;;;20.30;46.50;;;;;;1019087;29;20019;-78
2021/05/03 01:57:10;;;;;;;0.68;0.40;;;20.30;46.50;;;;;;1019517;29;20015;-80
2021/05/03 01:57:40;;;;;;;1.55;0.50;;;20.20;46.50;;;;;;1019558;29;20441;-78
2021/05/03 01:58:12;;;;;;;0.88;0.40;;;20.20;46.50;;;;;;1019483;29;20016;-76
2021/05/03 01:58:43;;;;;;;0.75;0.50;;;20.20;46.50;;;;;;1014889;29;20013;-78
2021/05/03 01:59:13;;;;;;;0.90;0.40;;;20.20;46.60;;;;;;1012078;29;20033;-78
2021/05/03 01:59:44;;;;;;;1.17;0.52;;;20.20;46.40;;;;;;1008194;29;20017;-79
2021/05/03 02:00:15;;;;;;;0.45;0.32;;;20.20;46.50;;;;;;1010454;29;20016;-78
2021/05/03 02:00:46;;;;;;;1.55;0.50;;;20.20;46.50;;;;;;1015501;29;20022;-77
2021/05/03 02:01:16;;;;;;;2.05;0.50;;;20.20;46.40;;;;;;1019484;29;20028;-80
2021/05/03 02:01:47;;;;;;;0.75;0.30;;;20.30;46.60;;;;;;1019513;28;20016;-77
2021/05/03 02:02:17;;;;;;;2.85;0.50;;;20.30;46.40;;;;;;1019490;29;20020;-79
2021/05/03 02:02:48;;;;;;;0.82;0.40;;;20.30;46.60;;;;;;1019257;29;20039;-79
2021/05/03 02:03:25;;;;;;;0.77;0.40;;;20.20;46.50;;;;;;1015436;29;20068;-78
2021/05/03 02:03:56;;;;;;;0.90;0.47;;;20.20;46.30;;;;;;1019000;29;20434;-79
2021/05/03 02:04:26;;;;;;;1.15;0.50;;;20.20;46.40;;;;;;1011578;29;20012;-78
2021/05/03 02:04:57;;;;;;;2.10;0.50;;;20.20;46.30;;;;;;1004691;29;20017;-78
2021/05/03 02:05:27;;;;;;;1.80;0.50;;;20.20;46.20;;;;;;1011231;29;20020;-78
2021/05/03 02:05:58;;;;;;;2.45;0.52;;;20.20;46.20;;;;;;1011906;29;20056;-78
2021/05/03 02:06:28;;;;;;;1.25;0.40;;;20.20;46.30;;;;;;1007630;29;20108;-80
2021/05/03 02:06:59;;;;;;;1.38;0.50;;;20.30;46.40;;;;;;1011468;29;20395;-78
2021/05/03 02:07:29;;;;;;;1.23;0.45;;;20.20;46.20;;;;;;1015281;29;20020;-78
2021/05/03 02:08:04;;;;;;;1.77;0.40;;;20.20;46.30;;;;;;1016065;29;20130;-76
2021/05/03 02:08:34;;;;;;;2.28;0.40;;;20.20;46.20;;;;;;1015183;29;20016;-82
2021/05/03 02:09:07;;;;;;;1.35;0.50;;;20.30;46.20;;;;;;1011654;29;20036;-78
2021/05/03 02:09:41;;;;;;;2.38;0.52;;;20.20;46.30;;;;;;1015914;29;20144;-76
2021/05/03 02:10:12;;;;;;;1.27;0.50;;;20.20;46.20;;;;;;1023739;29;20363;-77
2021/05/03 02:10:42;;;;;;;2.53;0.40;;;20.20;46.80;;;;;;1019887;29;20087;-80
2021/05/03 02:11:13;;;;;;;1.13;0.50;;;20.20;46.30;;;;;;1011597;29;20024;-78
2021/05/03 02:11:44;;;;;;;2.70;0.40;;;20.20;46.20;;;;;;1019725;29;20349;-78
2021/05/03 02:12:14;;;;;;;1.25;0.35;;;20.20;46.30;;;;;;1015909;29;20035;-78
2021/05/03 02:12:45;;;;;;;2.78;0.43;;;20.20;46.30;;;;;;1008177;29;20053;-82
2021/05/03 02:13:15;;;;;;;2.20;0.30;;;20.30;46.20;;;;;;1016043;29;20079;-80
2021/05/03 02:13:46;;;;;;;0.63;0.38;;;20.30;46.20;;;;;;1019230;29;20031;-76
2021/05/03 02:14:16;;;;;;;4.38;0.40;;;20.20;46.20;;;;;;1013217;29;20028;-79
2021/05/03 02:14:47;;;;;;;2.30;0.50;;;20.20;46.20;;;;;;1019610;29;20531;-81
2021/05/03 02:15:17;;;;;;;0.85;0.50;;;20.20;46.30;;;;;;1014776;29;20024;-79
2021/05/03 02:15:48;;;;;;;1.85;0.30;;;20.20;46.20;;;;;;1015796;29;20438;-79
2021/05/03 02:16:19;;;;;;;1.85;0.40;;;20.20;46.30;;;;;;1020390;29;20070;-80
2021/05/03 02:16:49;;;;;;;2.25;0.43;;;20.20;46.20;;;;;;1015732;29;20039;-76
2021/05/03 02:17:20;;;;;;;1.20;0.50;;;20.20;46.30;;;;;;1015453;29;20016;-81
2021/05/03 02:17:50;;;;;;;1.35;0.60;;;20.20;46.20;;;;;;1011742;29;20013;-76
2021/05/03 02:18:21;;;;;;;0.55;0.30;;;20.20;46.20;;;;;;1007780;29;20097;-81
2021/05/03 02:18:51;;;;;;;2.20;0.30;;;20.20;46.20;;;;;;1007560;29;20499;-76
2021/05/03 02:19:22;;;;;;;0.93;0.40;;;20.20;46.30;;;;;;1011413;29;20033;-79
2021/05/03 02:19:52;;;;;;;2.75;0.57;;;20.20;46.20;;;;;;1019403;29;20024;-76
2021/05/03 02:20:23;;;;;;;0.70;0.30;;;20.20;46.20;;;;;;1015524;29;20039;-80
2021/05/03 02:20:54;;;;;;;0.98;0.50;;;20.20;46.20;;;;;;1015638;29;20087;-75
2021/05/03 02:21:24;;;;;;;2.10;0.68;;;20.20;46.10;;;;;;1019107;29;20020;-77
2021/05/03 02:21:55;;;;;;;1.38;0.30;;;20.20;46.20;;;;;;1011712;29;20016;-76
2021/05/03 02:22:25;;;;;;;0.80;0.32;;;20.20;46.00;;;;;;1015730;29;20046;-78
2021/05/03 02:22:56;;;;;;;1.65;0.50;;;20.30;46.00;;;;;;1015494;29;20025;-76
2021/05/03 02:23:27;;;;;;;0.55;0.38;;;20.20;46.10;;;;;;1019353;29;20051;-76
2021/05/03 02:23:57;;;;;;;0.95;0.40;;;20.20;46.20;;;;;;1014687;29;20032;-75
2021/05/03 02:24:28;;;;;;;0.88;0.35;;;20.20;46.10;;;;;;1007242;29;20021;-78
2021/05/03 02:24:58;;;;;;;2.22;0.50;;;20.20;46.10;;;;;;1007678;29;20031;-75
2021/05/03 02:25:29;;;;;;;1.17;0.32;;;20.20;46.10;;;;;;1011289;29;20068;-78
2021/05/03 02:25:59;;;;;;;1.05;0.43;;;20.20;46.10;;;;;;1011299;29;20021;-77
2021/05/03 02:26:30;;;;;;;3.08;0.43;;;20.20;46.20;;;;;;1011349;29;20021;-78
2021/05/03 02:27:00;;;;;;;0.70;0.40;;;20.20;46.10;;;;;;1023474;29;20462;-77
2021/05/03 02:27:31;;;;;;;3.22;0.40;;;20.20;46.20;;;;;;1023332;29;20016;-78
2021/05/03 02:28:01;;;;;;;1.90;0.52;;;20.20;46.00;;;;;;1019477;29;20417;-79
2021/05/03 02:28:32;;;;;;;0.95;0.40;;;20.20;46.00;;;;;;1014848;29;20043;-77
2021/05/03 02:29:02;;;;;;;2.47;0.35;;;20.20;46.10;;;;;;1014717;29;20538;-78
2021/05/03 02:29:33;;;;;;;0.32;0.32;;;20.20;46.10;;;;;;1016602;29;20110;-78
2021/05/03 02:30:04;;;;;;;0.63;0.40;;;20.20;46.20;;;;;;1019643;28;20028;-77
2021/05/03 02:30:35;;;;;;;1.95;0.45;;;20.20;46.30;;;;;;1019110;29;20032;-78
2021/05/03 02:31:06;;;;;;;1.65;0.40;;;20.20;46.20;;;;;;1015429;29;20438;-76
2021/05/03 02:31:36;;;;;;;0.98;0.40;;;20.20;46.20;;;;;;1023286;29;20475;-79
2021/05/03 02:32:07;;;;;;;5.32;0.60;;;20.20;46.20;;;;;;1019216;29;20008;-77
2021/05/03 02:32:38;;;;;;;2.28;0.50;;;20.20;46.20;;;;;;1011583;29;20515;-79
2021/05/03 02:33:09;;;;;;;0.80;0.40;;;20.20;46.20;;;;;;1007759;29;20037;-77
2021/05/03 02:33:39;;;;;;;1.08;0.43;;;20.10;46.30;;;;;;1015042;29;20136;-78
2021/05/03 02:34:10;;;;;;;1.23;0.50;;;20.20;46.20;;;;;;1015609;29;20443;-81
2021/05/03 02:34:40;;;;;;;1.70;0.40;;;20.20;46.80;;;;;;1011812;29;20017;-77
2021/05/03 02:35:15;;;;;;;1.30;0.38;;;20.10;46.20;;;;;;1007806;29;20543;-80
2021/05/03 02:35:46;;;;;;;0.60;0.40;;;20.20;46.10;;;;;;1015482;29;20446;-80
2021/05/03 02:36:18;;;;;;;5.03;0.60;;;20.20;46.10;;;;;;1019079;29;20028;-80
2021/05/03 02:36:51;;;;;;;0.73;0.30;;;20.20;46.10;;;;;;1011472;29;20021;-77
2021/05/03 02:37:24;;;;;;;1.75;0.40;;;20.20;46.20;;;;;;1011682;29;20472;-76
2021/05/03 02:37:57;;;;;;;0.98;0.30;;;20.20;46.20;;;;;;1016895;29;20107;-77
2021/05/03 02:38:31;;;;;;;1.05;0.30;;;20.20;46.20;;;;;;1015268;29;20550;-75
2021/05/03 02:39:01;;;;;;;0.50;0.35;;;20.20;46.20;;;;;;1019208;29;20050;-79
2021/05/03 02:39:32;;;;;;;0.47;0.30;;;20.20;46.10;;;;;;1015548;29;20515;-77
2021/05/03 02:40:03;;;;;;;0.35;0.30;;;20.20;46.10;;;;;;1020130;29;20510;-80
2021/05/03 02:40:34;;;;;;;1.10;0.40;;;20.20;46.20;;;;;;1015515;29;20632;-77
2021/05/03 02:41:05;;;;;;;1.63;0.32;;;20.20;46.10;;;;;;1020023;29;20023;-78
2021/05/03 02:41:35;;;;;;;1.80;0.45;;;20.20;46.20;;;;;;1026291;28;20026;-76
2021/05/03 02:42:06;;;;;;;0.40;0.35;;;20.20;46.20;;;;;;1015562;29;20071;-78